FW5453 Weather Reports


Display with metric or nautical units.
time (UTC)temp
F
wind
direction
speed
MPH
gust
MPH
rain 1hr
in
rain 24hr
in
rain mn
in
humidity
%
barometer
mb
20200804195806 91 202 2.0 2.0 0.00 0.82 0.01 57 999.6
20200804195306 92 225 1.0 5.0 0.00 0.82 0.01 55 999.8
20200804194805 91 113 4.0 6.0 0.00 0.82 0.01 57 999.8
20200804194305 92 155 2.0 3.0 0.00 0.82 0.01 57 999.8
20200804193807 93 76 3.0 5.0 0.00 0.82 0.01 56 999.8
20200804193307 93 326 1.0 3.0 0.00 0.82 0.01 56 999.8
20200804192806 91 225 2.0 3.0 0.00 0.82 0.01 56 999.9
20200804192305 93 207 2.0 3.0 0.00 0.82 0.01 54 999.9
20200804191805 93 326 3.0 7.0 0.00 0.82 0.01 56 1000.0
20200804191307 90 135 3.0 3.0 0.00 0.82 0.01 57 1000.0
20200804190809 91 134 1.0 2.0 0.00 0.82 0.01 55 1000.1
20200804190305 94 353 1.0 2.0 0.00 0.82 0.01 57 1000.1
20200804185807 93 224 2.0 3.0 0.00 0.82 0.01 58 1000.1
20200804185306 91 112 3.0 5.0 0.00 0.82 0.01 58 1000.2
20200804184808 92 251 0.0 6.0 0.00 0.82 0.01 58 1000.2
20200804184306 91 112 2.0 6.0 0.00 0.82 0.01 57 1000.2
20200804183806 93 276 2.0 3.0 0.00 0.82 0.01 58 1000.2
20200804183306 93 187 3.0 6.0 0.00 0.82 0.01 58 1000.2
20200804182807 93 303 2.0 3.0 0.00 0.82 0.01 59 1000.4
20200804182306 90 112 3.0 5.0 0.00 0.82 0.01 59 1000.4
20200804181807 90 159 1.0 2.0 0.00 0.82 0.01 59 1000.4
20200804181306 91 167 2.0 3.0 0.00 0.82 0.01 59 1000.4
20200804180805 92 256 2.0 5.0 0.00 0.82 0.01 59 1000.5
20200804180306 91 186 4.0 6.0 0.00 0.82 0.01 57 1000.5
20200804175807 93 243 4.0 7.0 0.00 0.82 0.01 56 1000.5
20200804175307 93 233 3.0 5.0 0.00 0.82 0.01 57 1000.6
20200804174806 92 296 4.0 6.0 0.00 0.82 0.01 60 1000.6
20200804174307 90 66 2.0 3.0 0.00 0.82 0.01 59 1000.6
20200804173806 90 130 2.0 3.0 0.00 0.82 0.01 58 1000.6
20200804173305 93 147 3.0 5.0 0.00 0.82 0.01 58 1000.6
20200804172806 92 122 1.0 5.0 0.00 0.82 0.01 59 1000.7
20200804172306 91 196 3.0 5.0 0.00 0.82 0.01 59 1000.7
20200804171807 90 258 2.0 5.0 0.00 0.83 0.01 61 1000.9
20200804171305 90 180 2.0 3.0 0.00 0.84 0.01 62 1000.9
20200804170806 89 245 2.0 2.0 0.00 0.85 0.01 62 1000.9
20200804170306 89 79 3.0 6.0 0.00 0.85 0.01 61 1001.0
20200804165807 91 324 2.0 5.0 0.00 0.85 0.01 61 1001.0
20200804165306 91 314 3.0 5.0 0.00 0.86 0.01 61 1001.1
20200804164805 88 157 1.0 3.0 0.00 0.86 0.01 63 1001.1
20200804164305 88 135 2.0 5.0 0.00 0.86 0.01 62 1001.1
20200804163806 89 301 3.0 6.0 0.00 0.86 0.01 63 1001.1
20200804163305 88 232 2.0 2.0 0.00 0.86 0.01 64 1001.1
20200804162808 87 46 2.0 5.0 0.00 0.86 0.01 67 1001.0
20200804162307 86 101 3.0 5.0 0.00 0.86 0.01 66 1001.0
20200804161806 88 171 2.0 3.0 0.00 0.86 0.01 66 1001.1
20200804161307 86 189 2.0 2.0 0.00 0.86 0.01 69 1001.1
20200804160805 87 189 2.0 5.0 0.00 0.86 0.01 71 1001.1
20200804160306 84 136 3.0 6.0 0.00 0.86 0.01 71 1001.1
20200804155809 84 135 3.0 3.0 0.00 0.86 0.01 70 1001.1
20200804155306 85 132 2.0 3.0 0.00 0.86 0.01 68 1001.2
20200804154807 87 253 3.0 5.0 0.00 0.86 0.01 67 1001.2
20200804154306 86 304 2.0 2.0 0.00 0.86 0.01 69 1001.2
20200804153807 85 132 2.0 2.0 0.00 0.86 0.01 69 1001.2
20200804153307 86 270 3.0 6.0 0.00 0.86 0.01 68 1001.2
20200804152806 86 311 3.0 6.0 0.00 0.86 0.01 69 1001.2
20200804152307 85 289 2.0 2.0 0.00 0.86 0.01 71 1001.2
20200804151807 85 209 2.0 2.0 0.00 0.86 0.01 73 1001.3
20200804151306 83 101 2.0 2.0 0.00 0.86 0.01 73 1001.3
20200804150809 84 256 2.0 3.0 0.00 0.86 0.01 74 1001.3
20200804150308 82 167 2.0 2.0 0.00 0.86 0.01 76 1001.3
20200804145808 81 62 2.0 2.0 0.00 0.86 0.01 77 1001.3
20200804145306 81 189 2.0 3.0 0.00 0.86 0.01 77 1001.3
20200804144811 80 134 1.0 5.0 0.00 0.86 0.01 76 1001.3
20200804144306 81 302 2.0 5.0 0.00 0.86 0.01 76 1001.2
20200804143806 80 308 2.0 3.0 0.00 0.86 0.01 78 1001.2
20200804143306 79 242 2.0 2.0 0.00 0.86 0.01 79 1001.2
20200804142806 80 223 3.0 5.0 0.00 0.86 0.01 80 1001.2
20200804142307 78 114 1.0 2.0 0.00 0.86 0.01 81 1001.2
20200804141806 78 193 2.0 2.0 0.00 0.86 0.01 82 1001.2
20200804141312 78 66 2.0 3.0 0.00 0.86 0.01 82 1001.2
20200804140806 77 202 2.0 2.0 0.00 0.86 0.01 84 1001.1
20200804140306 77 173 2.0 5.0 0.00 0.86 0.01 84 1001.1
20200804135808 77 22 3.0 5.0 0.00 0.86 0.01 85 1001.1
20200804135306 77 315 3.0 3.0 0.00 0.86 0.01 87 1001.2
20200804134806 76 276 2.0 2.0 0.00 0.86 0.01 88 1001.2
20200804134307 75 315 2.0 3.0 0.00 0.86 0.01 90 1001.2
20200804133806 74 169 1.0 1.0 0.00 0.86 0.01 90 1001.2
20200804133306 75 218 2.0 2.0 0.00 0.86 0.01 91 1001.2
20200804132805 73 285 1.0 2.0 0.00 0.86 0.01 93 1001.2
20200804132306 72 30 2.0 3.0 0.00 0.86 0.01 94 1001.2
20200804131807 71 284 1.0 2.0 0.00 0.86 0.01 96 1001.1
20200804131307 72 333 1.0 2.0 0.00 0.86 0.01 96 1001.1
20200804130808 71 0 2.0 3.0 0.00 0.86 0.01 97 1001.1
20200804130309 71 319 2.0 2.0 0.00 0.86 0.01 98 1001.1
20200804125807 71 221 0.0 0.0 0.00 0.86 0.01 98 1001.1
20200804125305 70 183 1.0 2.0 0.00 0.86 0.01 99 1001.1
20200804124754 70 123 0.0 2.0 0.00 0.86 0.01 99 1001.1
20200804124254 69 307 2.0 3.0 0.00 0.86 0.01 99 1001.1
20200804123755 69 313 1.0 2.0 0.00 0.86 0.01 99 1001.1
20200804123254 69 299 1.0 3.0 0.00 0.86 0.01 99 1001.0
20200804122755 68 274 3.0 3.0 0.00 0.86 0.01 99 1001.0
20200804122255 69 273 2.0 2.0 0.00 0.86 0.01 99 1001.0
20200804121754 69 235 0.0 2.0 0.00 0.86 0.01 99 1000.9
20200804121254 69 256 0.0 1.0 0.00 0.86 0.01 99 1000.9
20200804120755 68 223 1.0 1.0 0.00 0.86 0.01 99 1000.6
20200804120256 68 162 1.0 2.0 0.00 0.86 0.01 99 1000.6
20200804115758 68 118 1.0 2.0 0.00 0.86 0.01 99 1000.6
20200804115254 68 246 0.0 3.0 0.00 0.86 0.01 99 1000.5
20200804114754 68 228 2.0 2.0 0.00 0.86 0.01 99 1000.5
20200804114255 68 257 2.0 3.0 0.00 0.86 0.01 99 1000.4
20200804113755 68 193 1.0 3.0 0.00 0.86 0.01 99 1000.4
20200804113254 68 202 1.0 2.0 0.00 0.86 0.01 99 1000.3
20200804112754 68 251 2.0 2.0 0.00 0.86 0.01 99 1000.3
20200804112253 68 206 2.0 5.0 0.00 0.86 0.01 99 1000.3
20200804111756 68 250 0.0 2.0 0.00 0.86 0.01 99 1000.1
20200804111255 68 257 0.0 1.0 0.00 0.86 0.01 99 1000.1
20200804110755 68 274 1.0 3.0 0.01 0.86 0.01 99 1000.0
20200804110255 68 236 1.0 1.0 0.01 0.86 0.01 99 1000.0
20200804105754 68 269 1.0 3.0 0.01 0.86 0.01 99 1000.0
20200804105254 68 272 1.0 2.0 0.01 0.86 0.01 99 999.9
20200804104754 68 211 1.0 1.0 0.01 0.86 0.01 99 999.9
20200804104255 68 222 0.0 1.0 0.01 0.86 0.01 99 999.8
20200804103754 68 231 0.0 3.0 0.01 0.86 0.01 99 999.8
20200804103253 68 282 0.0 2.0 0.01 0.86 0.01 99 999.8
20200804102754 68 240 1.0 2.0 0.01 0.86 0.01 99 999.8
20200804102255 68 263 2.0 3.0 0.01 0.86 0.01 99 999.8
20200804101753 68 168 2.0 2.0 0.01 0.86 0.01 99 999.8
20200804101254 68 209 0.0 1.0 0.01 0.86 0.01 99 999.8
20200804100755 68 329 0.0 3.0 0.00 0.85 0.00 99 999.6
20200804100254 68 225 1.0 2.0 0.00 0.85 0.00 99 999.6
20200804095754 68 243 1.0 1.0 0.00 0.85 0.00 99 999.6
20200804095254 68 345 0.0 2.0 0.00 0.85 0.00 99 999.4
20200804094755 68 278 0.0 0.0 0.00 0.85 0.00 99 999.4
20200804094256 68 212 0.0 0.0 0.00 0.85 0.00 99 999.2
20200804093755 68 202 0.0 0.0 0.00 0.85 0.00 99 999.2
20200804093254 68 180 0.0 1.0 0.00 0.85 0.00 99 999.1
20200804092755 68 243 0.0 0.0 0.00 0.85 0.00 99 999.0
20200804092255 68 150 0.0 0.0 0.00 0.85 0.00 99 999.0
20200804091755 68 225 0.0 0.0 0.00 0.85 0.00 99 998.8
20200804091255 68 225 0.0 1.0 0.00 0.85 0.00 99 998.8
20200804090753 68 225 0.0 0.0 0.00 0.85 0.00 99 998.7
20200804090254 68 209 0.0 0.0 0.00 0.85 0.00 99 998.7
20200804085755 68 143 0.0 0.0 0.00 0.85 0.00 99 998.7
20200804085254 68 204 0.0 1.0 0.00 0.85 0.00 99 998.6
20200804084755 68 242 0.0 0.0 0.00 0.85 0.00 99 998.6
20200804084255 68 205 0.0 0.0 0.00 0.85 0.00 99 998.6
20200804083754 68 217 0.0 2.0 0.00 0.85 0.00 99 998.6
20200804083256 68 221 0.0 1.0 0.00 0.85 0.00 99 998.6
20200804082755 68 225 0.0 2.0 0.00 0.85 0.00 99 998.7
20200804082254 68 275 3.0 3.0 0.00 0.85 0.00 99 998.7
20200804081755 68 277 1.0 1.0 0.00 0.85 0.00 99 998.6
20200804081255 68 270 1.0 2.0 0.00 0.85 0.00 99 998.6
20200804080757 68 68 1.0 1.0 0.00 0.85 0.00 99 998.4
20200804080255 68 275 0.0 1.0 0.00 0.85 0.00 99 998.4
20200804075754 68 271 0.0 1.0 0.00 0.85 0.00 99 998.4
20200804075253 68 156 0.0 1.0 0.00 0.85 0.00 99 998.3
20200804074754 68 223 0.0 2.0 0.00 0.85 0.00 99 998.3
20200804074255 68 291 3.0 5.0 0.00 0.85 0.00 99 998.4
20200804073755 68 294 2.0 3.0 0.00 0.85 0.00 99 998.4
20200804073254 68 258 2.0 5.0 0.00 0.85 0.00 99 998.3
20200804072755 68 303 2.0 3.0 0.00 0.85 0.00 99 998.3
20200804072254 68 268 2.0 3.0 0.00 0.85 0.00 99 998.3
20200804071754 68 246 2.0 3.0 0.00 0.85 0.00 99 998.2
20200804071254 68 239 2.0 3.0 0.00 0.85 0.00 99 998.2
20200804070754 68 281 3.0 3.0 0.00 0.85 0.00 99 998.2
20200804070254 68 337 3.0 5.0 0.00 0.85 0.00 99 998.2
20200804065754 68 275 2.0 3.0 0.00 0.85 0.00 99 998.2
20200804065256 68 223 2.0 3.0 0.00 0.85 0.00 99 998.4
20200804064754 68 319 1.0 2.0 0.00 0.85 0.00 99 998.4
20200804064254 67 216 2.0 3.0 0.00 0.85 0.00 99 998.3
20200804063256 67 292 1.0 2.0 0.00 0.85 0.00 99 998.3
20200804062755 67 260 0.0 2.0 0.00 0.85 0.00 99 998.5
20200804062254 67 282 1.0 3.0 0.00 0.85 0.00 99 998.5
20200804061757 67 227 1.0 1.0 0.00 0.85 0.00 99 998.7
20200804061255 67 253 1.0 3.0 0.00 0.85 0.00 99 998.7
20200804060754 67 233 2.0 3.0 0.00 0.85 0.00 99 998.7
20200804060255 67 199 2.0 3.0 0.00 0.85 0.00 99 998.7
20200804055759 67 284 2.0 2.0 0.00 0.85 0.00 99 998.7
20200804055255 67 247 1.0 1.0 0.00 0.85 0.00 99 998.7
20200804054754 66 305 2.0 2.0 0.00 0.85 0.00 99 998.7
20200804054256 66 279 1.0 2.0 0.00 0.85 0.00 99 998.5
20200804053803 66 224 0.0 1.0 0.00 0.85 0.00 99 998.5
20200804053259 67 171 1.0 2.0 0.00 0.85 0.00 99 998.5
20200804052755 66 277 0.0 0.0 0.00 0.85 0.00 99 998.4
20200804052254 66 294 0.0 0.0 0.00 0.85 0.00 98 998.4
20200804051754 66 158 0.0 0.0 0.00 0.85 0.00 98 998.3
20200804051255 66 257 0.0 0.0 0.00 0.85 0.00 98 998.3
20200804050756 66 224 0.0 0.0 0.00 0.85 0.00 98 998.4
20200804050255 66 236 0.0 0.0 0.00 0.85 0.00 98 998.4
20200804045754 66 270 0.0 0.0 0.00 0.85 0.00 98 998.4
20200804045255 66 235 0.0 0.0 0.00 0.85 0.00 98 998.3
20200804044755 66 233 0.0 0.0 0.00 0.85 0.00 98 998.3
20200804044255 66 232 0.0 0.0 0.00 0.85 0.00 98 998.3
20200804043755 66 225 0.0 0.0 0.00 0.85 0.00 98 998.3
20200804043254 66 248 0.0 0.0 0.00 0.85 0.00 98 998.3
20200804042756 66 208 0.0 0.0 0.00 0.85 0.00 98 998.4
20200804042255 66 270 0.0 0.0 0.00 0.85 0.00 98 998.4
20200804041754 66 281 0.0 0.0 0.00 0.85 0.00 98 998.3
20200804041255 66 225 0.0 0.0 0.00 0.85 0.00 98 998.3
20200804040755 67 225 0.0 0.0 0.00 0.85 0.00 98 998.3
20200804040255 67 225 0.0 0.0 0.00 0.85 0.00 98 998.3
20200804035754 67 202 0.0 0.0 0.00 0.85 0.85 98 998.3
20200804035255 67 263 0.0 0.0 0.00 0.85 0.85 98 998.2
20200804034755 67 239 0.0 0.0 0.00 0.85 0.85 98 998.2
20200804034254 67 231 0.0 0.0 0.00 0.85 0.85 98 998.2
20200804033756 67 181 0.0 0.0 0.00 0.85 0.85 98 998.2
20200804033255 67 225 0.0 0.0 0.00 0.85 0.85 98 998.2
20200804032755 67 267 0.0 0.0 0.00 0.85 0.85 98 998.1
20200804032255 67 225 0.0 0.0 0.00 0.85 0.85 98 998.1
20200804031756 67 225 0.0 0.0 0.00 0.85 0.85 98 998.1
20200804031259 67 268 0.0 0.0 0.00 0.85 0.85 98 998.1
20200804030755 67 225 0.0 0.0 0.00 0.85 0.85 98 998.0
20200804030256 68 231 0.0 0.0 0.00 0.85 0.85 98 998.0
20200804025755 68 181 0.0 0.0 0.00 0.85 0.85 97 998.0
20200804025255 68 227 0.0 0.0 0.00 0.85 0.85 97 998.1
20200804024755 68 225 0.0 0.0 0.00 0.85 0.85 97 998.1
20200804024254 68 158 0.0 0.0 0.00 0.85 0.85 97 998.0
20200804023755 68 247 0.0 1.0 0.00 0.85 0.85 97 998.0
20200804023256 68 261 1.0 2.0 0.00 0.85 0.85 97 998.0
20200804022754 68 256 2.0 2.0 0.00 0.85 0.85 97 997.9
20200804022254 68 268 2.0 2.0 0.01 0.85 0.85 97 997.9
20200804021755 68 289 1.0 2.0 0.01 0.85 0.85 97 997.9
20200804021255 68 241 2.0 2.0 0.01 0.85 0.85 97 997.9
20200804020755 68 261 2.0 2.0 0.02 0.85 0.85 96 997.6
20200804020255 69 237 1.0 2.0 0.03 0.85 0.85 96 997.5
20200804015755 69 344 2.0 2.0 0.04 0.85 0.85 96 997.5
20200804015256 69 144 2.0 2.0 0.06 0.85 0.85 96 997.7
20200804014755 69 152 3.0 5.0 0.07 0.85 0.85 96 997.7
20200804014255 69 113 2.0 3.0 0.09 0.85 0.85 96 998.0
20200804013755 69 131 3.0 5.0 0.11 0.85 0.85 96 998.0
20200804013256 69 147 4.0 6.0 0.12 0.85 0.85 96 998.0
20200804012755 69 113 3.0 6.0 0.14 0.85 0.85 96 998.2
20200804012254 69 150 5.0 6.0 0.15 0.84 0.84 96 998.2
20200804011757 69 237 4.0 6.0 0.16 0.84 0.84 96 998.0
20200804011257 69 143 3.0 6.0 0.17 0.84 0.84 96 998.0
20200804010756 69 180 3.0 5.0 0.20 0.83 0.83 96 998.5
20200804010255 69 102 5.0 8.0 0.22 0.82 0.82 96 998.6
20200804005756 69 151 6.0 9.0 0.25 0.81 0.81 96 998.6
20200804005256 69 141 5.0 8.0 0.29 0.79 0.79 96 999.3
20200804004755 69 154 6.0 9.0 0.36 0.78 0.78 96 999.3
20200804004255 69 243 3.0 9.0 0.44 0.76 0.76 96 1000.0
20200804003755 69 136 4.0 6.0 0.51 0.74 0.74 96 1000.0
20200804003256 68 102 5.0 10.0 0.51 0.73 0.73 95 1000.0
20200804002755 68 291 5.0 8.0 0.57 0.71 0.71 95 1000.1
20200804002255 68 277 4.0 9.0 0.65 0.69 0.69 95 1000.1
20200804001755 68 269 6.0 10.0 0.64 0.68 0.68 95 1000.1
20200804001256 68 158 6.0 15.0 0.63 0.67 0.67 94 1000.1
20200804000755 69 258 7.0 18.0 0.59 0.63 0.63 94 999.9
20200804000254 69 0 11.0 18.0 0.56 0.60 0.60 94 999.9
20200803235755 69 307 7.0 10.0 0.52 0.56 0.56 94 999.9
20200803235256 69 240 6.0 17.0 0.46 0.50 0.50 93 999.2
20200803234755 69 274 9.0 17.0 0.38 0.42 0.42 92 999.2
20200803234256 70 326 9.0 17.0 0.28 0.32 0.32 91 998.7
20200803233755 71 282 6.0 13.0 0.19 0.23 0.23 90 998.7
20200803233257 71 259 3.0 7.0 0.18 0.22 0.22 89 998.2
20200803232755 72 256 10.0 14.0 0.10 0.14 0.14 87 997.9
20200803232256 74 315 12.0 20.0 0.00 0.04 0.04 83 997.9
20200803231755 76 275 9.0 17.0 0.00 0.04 0.04 81 997.2
20200803231255 80 238 7.0 16.0 0.00 0.04 0.04 79 997.2
20200803230755 82 231 2.0 3.0 0.00 0.04 0.04 76 996.5
20200803230257 83 229 2.0 2.0 0.00 0.04 0.04 73 996.5
20200803225755 84 335 2.0 3.0 0.00 0.04 0.04 73 996.5
20200803225255 84 265 1.0 2.0 0.00 0.04 0.04 73 996.8
20200803224755 84 244 1.0 2.0 0.00 0.04 0.04 73 996.8
20200803224256 84 292 0.0 1.0 0.00 0.04 0.04 73 996.8
20200803223755 85 211 1.0 2.0 0.00 0.04 0.04 72 996.8
20200803223254 85 139 2.0 3.0 0.00 0.04 0.04 71 996.8
20200803222757 86 106 1.0 5.0 0.00 0.04 0.04 71 996.7
20200803222255 86 242 3.0 5.0 0.00 0.04 0.04 69 996.7
20200803221758 87 310 3.0 3.0 0.00 0.04 0.04 68 996.6
20200803221256 88 327 1.0 5.0 0.00 0.04 0.04 67 996.6
20200803220755 88 196 0.0 1.0 0.00 0.04 0.04 67 996.5
20200803220255 87 206 0.0 1.0 0.00 0.04 0.04 68 996.5
20200803215758 86 215 0.0 1.0 0.00 0.04 0.04 67 996.5
20200803215255 87 286 1.0 1.0 0.00 0.04 0.04 64 996.3
20200803214756 87 308 1.0 1.0 0.00 0.04 0.04 64 996.3
20200803214256 87 132 1.0 2.0 0.00 0.04 0.04 63 996.4
20200803213756 87 151 2.0 2.0 0.00 0.04 0.04 62 996.4
20200803213258 88 126 2.0 2.0 0.00 0.04 0.04 62 996.4
20200803212757 88 192 1.0 2.0 0.00 0.04 0.04 61 996.6
20200803212254 89 122 1.0 5.0 0.00 0.04 0.04 60 996.6
20200803211757 88 163 3.0 7.0 0.00 0.04 0.04 59 996.7
20200803211256 91 150 2.0 5.0 0.00 0.04 0.04 59 996.7
20200803210757 92 145 3.0 6.0 0.00 0.04 0.04 59 996.8
20200803210255 91 135 2.0 3.0 0.00 0.04 0.04 59 996.8
20200803205756 90 170 2.0 2.0 0.00 0.04 0.04 58 996.8
20200803205256 92 139 3.0 3.0 0.00 0.04 0.04 56 996.9
20200803204758 92 93 2.0 5.0 0.00 0.04 0.04 57 996.9
20200803204256 92 163 3.0 5.0 0.00 0.04 0.04 56 996.8
20200803203757 94 221 3.0 6.0 0.00 0.04 0.04 58 996.8
20200803203256 94 117 3.0 5.0 0.00 0.04 0.04 58 996.8
20200803202758 93 226 2.0 3.0 0.00 0.04 0.04 59 996.9
20200803202257 93 151 3.0 6.0 0.00 0.04 0.04 59 996.9
20200803201755 92 126 4.0 6.0 0.00 0.04 0.04 59 996.8
20200803201256 93 307 2.0 5.0 0.00 0.04 0.04 61 996.8
20200803200757 93 108 2.0 5.0 0.00 0.04 0.04 59 996.9
20200803200255 94 138 2.0 3.0 0.00 0.04 0.04 61 996.9